• Join FlightAware (Why Join?)
  • Login
  • US Flag 
03:47AM EST


 

Airport Tracker/Info


-or-


 

Live Flight TrackerFlight Track Log ✈ DAL6057 ✈ 25-Apr-2013 ✈ KCMH - KDTW

Flight Track Log - Related Links

Times and Time Zones

All times are in EDT time to prevent confusion due to time zone crossing. See the DAL6057 flight status page for this flight to view local times or setup timezone preferences in your user account.

Time Position Orientation Groundspeed Altitude Reporting Facility
EDT Latitude Longitude Course Direction KTS MPH feet Rate Location/Type
06:59AM 40.0025 -82.9103 21° North 146 168 1,400  Level Indianapolis Center
07:00AM 40.0050 -82.9650 273° West 200 230 3,200 2,280 Climbing Indianapolis Center
07:01AM 40.0294 -83.0386 293° West 243 280 5,600 2,400 Climbing Indianapolis Center
07:02AM 40.3091 -82.6507 29° Northeast  Level FlightAware Approximate
07:02AM 40.1058 -82.9853 28° Northeast 279 321 8,600  Level Indianapolis Center
07:03AM 40.3944 -82.5967 25° Northeast  Level FlightAware Approximate
07:03AM 40.1678 -82.9094 43° Northeast 300 345 10,600  Level Indianapolis Center
07:04AM 40.4823 -82.5505 21° North  Level FlightAware Approximate
07:04AM 40.2331 -82.8256 44° Northeast 321 369 12,300  Level Indianapolis Center
07:05AM 40.3150 -82.7561 33° Northeast 342 394 14,500 1,860 Climbing Indianapolis Center
07:06AM 40.4033 -82.7064 23° Northeast 342 394 16,100 1,200 Climbing Indianapolis Center
07:07AM 40.4983 -82.6525 23° Northeast 364 419 17,000 420 Climbing Indianapolis Center
07:08AM 40.5942 -82.5978 23° Northeast 372 428 17,000  Level Indianapolis Center
07:09AM 40.6586 -82.5592 24° Northeast 363 418 17,000  Level Cleveland Center
07:10AM 40.7575 -82.5075 22° Northeast 363 418 17,000  Level Cleveland Center
07:11AM 40.8503 -82.4525 24° Northeast 368 423 17,000  Level Cleveland Center
07:12AM 40.9450 -82.3975 24° Northeast 368 423 17,000  Level Cleveland Center
07:13AM 41.0331 -82.3669 15° North 368 423 17,000  Level Cleveland Center
07:14AM 41.1375 -82.3475 North 373 429 17,100  Climbing Cleveland Center
07:15AM 41.2419 -82.3256 North 373 429 17,000 -480 Descending Cleveland Center
07:16AM 41.3444 -82.3061 North 373 429 16,200 -1,020 Descending Cleveland Center
07:17AM 41.4572 -82.3008 North 368 423 15,000 -1,080 Descending Cleveland Center
07:18AM 41.5222 -82.4025 311° West 337 388 14,100 -780 Descending Cleveland Center
07:18AM 41.5406 -82.4392 304° West 347 399 14,000 -300 Descending Cleveland Center
07:19AM 41.5769 -82.5067 306° West 331 381 13,800 -1,020 Descending Cleveland Center
07:19AM 41.6053 -82.5547 308° West 340 391 12,900 -1,440 Descending Cleveland Center
07:20AM 41.6314 -82.6056 305° West 340 391 12,400 -840 Descending Cleveland Center
07:20AM 41.6639 -82.6650 306° West 335 386 12,000 -420 Descending Cleveland Center
07:21AM 41.6800 -82.6961 305° West 340 391 12,000  Level Cleveland Center
07:21AM 41.7203 -82.7725 305° West 330 380 12,000  Level Cleveland Center
07:22AM 41.7364 -82.7925 317° Northwest 335 386 12,000  Level Cleveland Center
07:22AM 41.7894 -82.8583 317° Northwest 337 388 12,000  Level Cleveland Center
07:23AM 41.8036 -82.8756 318° Northwest 330 380 12,000  Level Cleveland Center
07:23AM 41.8586 -82.9417 318° Northwest 337 388 12,000  Level Cleveland Center
07:24AM 41.8728 -82.9592 317° Northwest 330 380 12,000  Level Cleveland Center
07:24AM 41.9297 -83.0281 318° Northwest 336 387 12,000  Level Cleveland Center
07:25AM 41.9439 -83.0428 322° Northwest 335 386 12,000  Level Cleveland Center
07:25AM 41.9928 -83.1031 318° Northwest 265 305 12,000  Level Cleveland Center
07:26AM 42.0008 -83.1119 321° Northwest 316 364 12,000  Level Cleveland Center
07:26AM 42.0436 -83.1611 320° Northwest 227 261 12,000  Level Cleveland Center
07:27AM 42.0494 -83.1725 305° West 271 312 12,000  Level Cleveland Center
07:28AM 42.0983 -83.2278 320° Northwest 230 265 12,000 -600 Level Cleveland Center
07:28AM 42.1542 -83.2469 346° North 271 312 11,000 -1,380 Descending Cleveland Center
07:29AM 42.2219 -83.1992 28° Northeast 262 302 9,600 -1,680 Descending Cleveland Center
07:30AM 42.2897 -83.1542 26° Northeast 256 295 7,600 -1,620 Descending Cleveland Center
07:31AM 42.3447 -83.1200 25° Northeast 221 254 6,500 -840 Descending Cleveland Center
07:32AM 42.3942 -83.1444 340° North 184 212 6,000 -840 Descending Cleveland Center
07:33AM 42.3950 -83.1981 271° West 174 200 4,900 -1,080 Descending Cleveland Center
07:34AM 42.3611 -83.2275 213° Southwest 150 173 4,000 -900 Descending Cleveland Center
07:35AM 42.3164 -83.2622 210° Southwest 158 182 3,000 -900 Descending Cleveland Center